sensor_id;sensor_type;location;lat;lon;timestamp;P1;durP1;ratioP1;P2;durP2;ratioP2
52057;SDS011;38063;53.210;6.504;2023-12-04T00:00:45;38.60;;;17.50;;
52057;SDS011;38063;53.210;6.504;2023-12-04T00:03:11;39.85;;;18.17;;
52057;SDS011;38063;53.210;6.504;2023-12-04T00:05:36;36.80;;;16.23;;
52057;SDS011;38063;53.210;6.504;2023-12-04T00:08:02;38.55;;;17.73;;
52057;SDS011;38063;53.210;6.504;2023-12-04T00:10:28;37.55;;;16.40;;
52057;SDS011;38063;53.210;6.504;2023-12-04T00:12:53;36.28;;;17.05;;
52057;SDS011;38063;53.210;6.504;2023-12-04T00:15:19;37.92;;;18.17;;
52057;SDS011;38063;53.210;6.504;2023-12-04T00:17:46;40.58;;;17.20;;
52057;SDS011;38063;53.210;6.504;2023-12-04T00:20:11;39.70;;;17.67;;
52057;SDS011;38063;53.210;6.504;2023-12-04T00:22:37;43.35;;;17.95;;
52057;SDS011;38063;53.210;6.504;2023-12-04T00:25:03;40.83;;;17.63;;
52057;SDS011;38063;53.210;6.504;2023-12-04T00:27:30;41.65;;;19.05;;
52057;SDS011;38063;53.210;6.504;2023-12-04T00:29:56;39.33;;;16.92;;
52057;SDS011;38063;53.210;6.504;2023-12-04T00:32:22;34.45;;;16.63;;
52057;SDS011;38063;53.210;6.504;2023-12-04T00:34:48;41.60;;;18.85;;
52057;SDS011;38063;53.210;6.504;2023-12-04T00:37:14;37.33;;;17.58;;
52057;SDS011;38063;53.210;6.504;2023-12-04T00:39:39;40.33;;;18.15;;
52057;SDS011;38063;53.210;6.504;2023-12-04T00:42:05;42.33;;;18.52;;
52057;SDS011;38063;53.210;6.504;2023-12-04T00:44:31;36.78;;;18.42;;
52057;SDS011;38063;53.210;6.504;2023-12-04T00:46:57;36.72;;;17.33;;
52057;SDS011;38063;53.210;6.504;2023-12-04T00:49:22;40.17;;;18.15;;
52057;SDS011;38063;53.210;6.504;2023-12-04T00:51:48;40.28;;;18.10;;
52057;SDS011;38063;53.210;6.504;2023-12-04T00:54:14;37.90;;;16.65;;
52057;SDS011;38063;53.210;6.504;2023-12-04T00:56:40;39.85;;;17.70;;
52057;SDS011;38063;53.210;6.504;2023-12-04T00:59:07;36.53;;;17.90;;
52057;SDS011;38063;53.210;6.504;2023-12-04T01:01:38;40.47;;;19.77;;
52057;SDS011;38063;53.210;6.504;2023-12-04T01:04:04;40.92;;;17.95;;
52057;SDS011;38063;53.210;6.504;2023-12-04T01:06:30;41.70;;;18.98;;
52057;SDS011;38063;53.210;6.504;2023-12-04T01:08:55;44.67;;;19.08;;
52057;SDS011;38063;53.210;6.504;2023-12-04T01:11:22;43.20;;;18.92;;
52057;SDS011;38063;53.210;6.504;2023-12-04T01:13:48;37.58;;;18.52;;
52057;SDS011;38063;53.210;6.504;2023-12-04T01:16:14;40.97;;;18.70;;
52057;SDS011;38063;53.210;6.504;2023-12-04T01:18:40;39.65;;;18.92;;
52057;SDS011;38063;53.210;6.504;2023-12-04T01:21:06;37.88;;;17.50;;
52057;SDS011;38063;53.210;6.504;2023-12-04T01:23:34;44.38;;;18.55;;
52057;SDS011;38063;53.210;6.504;2023-12-04T01:26:00;37.75;;;17.50;;
52057;SDS011;38063;53.210;6.504;2023-12-04T01:28:26;42.50;;;18.70;;
52057;SDS011;38063;53.210;6.504;2023-12-04T01:30:52;37.08;;;17.38;;
52057;SDS011;38063;53.210;6.504;2023-12-04T01:33:17;36.58;;;17.20;;
52057;SDS011;38063;53.210;6.504;2023-12-04T01:35:43;41.45;;;18.13;;
52057;SDS011;38063;53.210;6.504;2023-12-04T01:38:08;39.30;;;16.30;;
52057;SDS011;38063;53.210;6.504;2023-12-04T01:40:34;35.55;;;16.95;;
52057;SDS011;38063;53.210;6.504;2023-12-04T01:43:01;36.80;;;16.80;;
52057;SDS011;38063;53.210;6.504;2023-12-04T01:45:26;38.08;;;17.25;;
52057;SDS011;38063;53.210;6.504;2023-12-04T01:47:52;38.63;;;18.10;;
52057;SDS011;38063;53.210;6.504;2023-12-04T01:50:18;39.63;;;17.50;;
52057;SDS011;38063;53.210;6.504;2023-12-04T01:52:45;37.60;;;18.00;;
52057;SDS011;38063;53.210;6.504;2023-12-04T01:55:11;35.80;;;17.17;;
52057;SDS011;38063;53.210;6.504;2023-12-04T01:57:38;39.95;;;16.80;;
52057;SDS011;38063;53.210;6.504;2023-12-04T02:00:04;37.25;;;15.80;;
52057;SDS011;38063;53.210;6.504;2023-12-04T02:02:31;33.53;;;16.45;;
52057;SDS011;38063;53.210;6.504;2023-12-04T02:04:57;34.03;;;16.40;;
52057;SDS011;38063;53.210;6.504;2023-12-04T02:07:24;36.65;;;17.38;;
52057;SDS011;38063;53.210;6.504;2023-12-04T02:09:50;36.03;;;15.93;;
52057;SDS011;38063;53.210;6.504;2023-12-04T02:12:16;33.00;;;16.17;;
52057;SDS011;38063;53.210;6.504;2023-12-04T02:14:42;36.90;;;16.30;;
52057;SDS011;38063;53.210;6.504;2023-12-04T02:17:08;37.13;;;16.90;;
52057;SDS011;38063;53.210;6.504;2023-12-04T02:19:35;39.30;;;17.58;;
52057;SDS011;38063;53.210;6.504;2023-12-04T02:22:01;37.47;;;16.38;;
52057;SDS011;38063;53.210;6.504;2023-12-04T02:24:26;34.78;;;16.00;;
52057;SDS011;38063;53.210;6.504;2023-12-04T02:26:54;39.05;;;16.50;;
52057;SDS011;38063;53.210;6.504;2023-12-04T02:29:32;33.42;;;15.45;;
52057;SDS011;38063;53.210;6.504;2023-12-04T02:32:09;34.58;;;15.60;;
52057;SDS011;38063;53.210;6.504;2023-12-04T02:34:40;37.08;;;16.17;;
52057;SDS011;38063;53.210;6.504;2023-12-04T02:37:08;37.65;;;17.17;;
52057;SDS011;38063;53.210;6.504;2023-12-04T02:39:34;38.53;;;17.25;;
52057;SDS011;38063;53.210;6.504;2023-12-04T02:42:01;34.53;;;16.42;;
52057;SDS011;38063;53.210;6.504;2023-12-04T02:44:28;34.58;;;16.08;;
52057;SDS011;38063;53.210;6.504;2023-12-04T02:46:54;35.92;;;15.48;;
52057;SDS011;38063;53.210;6.504;2023-12-04T02:49:19;35.13;;;16.33;;
52057;SDS011;38063;53.210;6.504;2023-12-04T02:51:45;36.88;;;16.85;;
52057;SDS011;38063;53.210;6.504;2023-12-04T02:54:11;33.35;;;16.85;;
52057;SDS011;38063;53.210;6.504;2023-12-04T02:56:37;34.50;;;16.98;;
52057;SDS011;38063;53.210;6.504;2023-12-04T02:59:02;32.90;;;15.60;;
52057;SDS011;38063;53.210;6.504;2023-12-04T03:01:28;35.83;;;17.20;;
52057;SDS011;38063;53.210;6.504;2023-12-04T03:03:54;36.33;;;15.95;;
52057;SDS011;38063;53.210;6.504;2023-12-04T03:06:19;37.38;;;16.98;;
52057;SDS011;38063;53.210;6.504;2023-12-04T03:08:45;36.28;;;16.02;;
52057;SDS011;38063;53.210;6.504;2023-12-04T03:11:10;35.25;;;15.93;;
52057;SDS011;38063;53.210;6.504;2023-12-04T03:13:36;35.78;;;15.90;;
52057;SDS011;38063;53.210;6.504;2023-12-04T03:16:02;36.88;;;15.73;;
52057;SDS011;38063;53.210;6.504;2023-12-04T03:18:27;33.20;;;15.85;;
52057;SDS011;38063;53.210;6.504;2023-12-04T03:20:54;34.63;;;15.98;;
52057;SDS011;38063;53.210;6.504;2023-12-04T03:23:19;34.80;;;15.18;;
52057;SDS011;38063;53.210;6.504;2023-12-04T03:25:45;36.55;;;16.27;;
52057;SDS011;38063;53.210;6.504;2023-12-04T03:28:11;35.42;;;15.45;;
52057;SDS011;38063;53.210;6.504;2023-12-04T03:30:40;36.10;;;16.05;;
52057;SDS011;38063;53.210;6.504;2023-12-04T03:33:09;36.33;;;16.50;;
52057;SDS011;38063;53.210;6.504;2023-12-04T03:35:34;36.17;;;15.18;;
52057;SDS011;38063;53.210;6.504;2023-12-04T03:38:00;37.70;;;17.05;;
52057;SDS011;38063;53.210;6.504;2023-12-04T03:40:25;35.65;;;16.23;;
52057;SDS011;38063;53.210;6.504;2023-12-04T03:42:51;38.70;;;15.52;;
52057;SDS011;38063;53.210;6.504;2023-12-04T03:45:17;35.97;;;16.58;;
52057;SDS011;38063;53.210;6.504;2023-12-04T03:47:42;35.70;;;15.80;;
52057;SDS011;38063;53.210;6.504;2023-12-04T03:50:08;35.33;;;16.13;;
52057;SDS011;38063;53.210;6.504;2023-12-04T03:52:34;34.45;;;16.55;;
52057;SDS011;38063;53.210;6.504;2023-12-04T03:54:59;37.65;;;17.95;;
52057;SDS011;38063;53.210;6.504;2023-12-04T03:57:25;40.95;;;16.42;;
52057;SDS011;38063;53.210;6.504;2023-12-04T03:59:51;34.42;;;14.88;;
52057;SDS011;38063;53.210;6.504;2023-12-04T04:02:16;35.28;;;17.25;;
52057;SDS011;38063;53.210;6.504;2023-12-04T04:04:42;35.80;;;15.63;;
52057;SDS011;38063;53.210;6.504;2023-12-04T04:07:08;32.75;;;15.63;;
52057;SDS011;38063;53.210;6.504;2023-12-04T04:09:34;38.75;;;17.02;;
52057;SDS011;38063;53.210;6.504;2023-12-04T04:11:59;34.30;;;15.40;;
52057;SDS011;38063;53.210;6.504;2023-12-04T04:14:25;31.92;;;15.95;;
52057;SDS011;38063;53.210;6.504;2023-12-04T04:16:51;38.20;;;17.95;;
52057;SDS011;38063;53.210;6.504;2023-12-04T04:19:16;38.60;;;16.08;;
52057;SDS011;38063;53.210;6.504;2023-12-04T04:21:42;37.10;;;15.93;;
52057;SDS011;38063;53.210;6.504;2023-12-04T04:24:08;39.17;;;16.33;;
52057;SDS011;38063;53.210;6.504;2023-12-04T04:26:33;37.13;;;15.95;;
52057;SDS011;38063;53.210;6.504;2023-12-04T04:28:59;33.80;;;15.35;;
52057;SDS011;38063;53.210;6.504;2023-12-04T04:31:25;30.77;;;15.50;;
52057;SDS011;38063;53.210;6.504;2023-12-04T04:33:50;38.38;;;17.42;;
52057;SDS011;38063;53.210;6.504;2023-12-04T04:36:16;35.20;;;16.10;;
52057;SDS011;38063;53.210;6.504;2023-12-04T04:38:41;35.15;;;16.75;;
52057;SDS011;38063;53.210;6.504;2023-12-04T04:41:12;34.28;;;15.50;;
52057;SDS011;38063;53.210;6.504;2023-12-04T04:43:39;33.97;;;15.48;;
52057;SDS011;38063;53.210;6.504;2023-12-04T04:46:04;34.47;;;15.55;;
52057;SDS011;38063;53.210;6.504;2023-12-04T04:48:30;33.47;;;15.48;;
52057;SDS011;38063;53.210;6.504;2023-12-04T04:50:56;35.05;;;15.57;;
52057;SDS011;38063;53.210;6.504;2023-12-04T04:53:22;37.78;;;15.98;;
52057;SDS011;38063;53.210;6.504;2023-12-04T04:55:47;36.40;;;16.35;;
52057;SDS011;38063;53.210;6.504;2023-12-04T04:58:13;39.78;;;15.90;;
52057;SDS011;38063;53.210;6.504;2023-12-04T05:00:38;35.20;;;16.00;;
52057;SDS011;38063;53.210;6.504;2023-12-04T05:03:04;32.90;;;15.52;;
52057;SDS011;38063;53.210;6.504;2023-12-04T05:05:30;34.30;;;16.50;;
52057;SDS011;38063;53.210;6.504;2023-12-04T05:07:55;32.60;;;15.25;;
52057;SDS011;38063;53.210;6.504;2023-12-04T05:10:21;37.22;;;15.52;;
52057;SDS011;38063;53.210;6.504;2023-12-04T05:12:46;34.85;;;15.82;;
52057;SDS011;38063;53.210;6.504;2023-12-04T05:15:12;35.78;;;15.82;;
52057;SDS011;38063;53.210;6.504;2023-12-04T05:17:38;37.72;;;16.38;;
52057;SDS011;38063;53.210;6.504;2023-12-04T05:20:04;38.33;;;17.27;;
52057;SDS011;38063;53.210;6.504;2023-12-04T05:22:30;35.00;;;16.10;;
52057;SDS011;38063;53.210;6.504;2023-12-04T05:24:55;33.67;;;15.68;;
52057;SDS011;38063;53.210;6.504;2023-12-04T05:27:21;33.92;;;15.38;;
52057;SDS011;38063;53.210;6.504;2023-12-04T05:29:47;30.33;;;15.55;;
52057;SDS011;38063;53.210;6.504;2023-12-04T05:32:12;36.03;;;15.57;;
52057;SDS011;38063;53.210;6.504;2023-12-04T05:34:38;36.22;;;15.35;;
52057;SDS011;38063;53.210;6.504;2023-12-04T05:37:04;35.30;;;16.38;;
52057;SDS011;38063;53.210;6.504;2023-12-04T05:39:30;33.30;;;15.45;;
52057;SDS011;38063;53.210;6.504;2023-12-04T05:41:55;36.67;;;16.02;;
52057;SDS011;38063;53.210;6.504;2023-12-04T05:44:21;37.17;;;15.95;;
52057;SDS011;38063;53.210;6.504;2023-12-04T05:46:47;34.85;;;14.85;;
52057;SDS011;38063;53.210;6.504;2023-12-04T05:49:12;36.00;;;15.82;;
52057;SDS011;38063;53.210;6.504;2023-12-04T05:51:38;33.85;;;14.63;;
52057;SDS011;38063;53.210;6.504;2023-12-04T05:54:03;30.25;;;14.70;;
52057;SDS011;38063;53.210;6.504;2023-12-04T05:56:29;33.25;;;15.25;;
52057;SDS011;38063;53.210;6.504;2023-12-04T05:58:55;32.90;;;14.73;;
52057;SDS011;38063;53.210;6.504;2023-12-04T06:01:21;31.65;;;14.65;;
52057;SDS011;38063;53.210;6.504;2023-12-04T06:03:46;36.40;;;15.30;;
52057;SDS011;38063;53.210;6.504;2023-12-04T06:06:12;33.47;;;14.93;;
52057;SDS011;38063;53.210;6.504;2023-12-04T06:08:37;34.55;;;14.77;;
52057;SDS011;38063;53.210;6.504;2023-12-04T06:11:03;35.63;;;15.45;;
52057;SDS011;38063;53.210;6.504;2023-12-04T06:13:29;33.47;;;14.88;;
52057;SDS011;38063;53.210;6.504;2023-12-04T06:15:54;33.22;;;15.00;;
52057;SDS011;38063;53.210;6.504;2023-12-04T06:18:20;35.38;;;15.10;;
52057;SDS011;38063;53.210;6.504;2023-12-04T06:20:46;27.58;;;13.20;;
52057;SDS011;38063;53.210;6.504;2023-12-04T06:23:12;34.42;;;14.77;;
52057;SDS011;38063;53.210;6.504;2023-12-04T06:25:37;30.58;;;14.65;;
52057;SDS011;38063;53.210;6.504;2023-12-04T06:28:04;29.77;;;13.80;;
52057;SDS011;38063;53.210;6.504;2023-12-04T06:30:30;33.67;;;14.63;;
52057;SDS011;38063;53.210;6.504;2023-12-04T06:32:56;34.28;;;14.98;;
52057;SDS011;38063;53.210;6.504;2023-12-04T06:35:21;28.67;;;13.73;;
52057;SDS011;38063;53.210;6.504;2023-12-04T06:37:48;32.85;;;13.38;;
52057;SDS011;38063;53.210;6.504;2023-12-04T06:40:15;26.50;;;13.18;;
52057;SDS011;38063;53.210;6.504;2023-12-04T06:42:42;30.33;;;13.55;;
52057;SDS011;38063;53.210;6.504;2023-12-04T06:45:08;30.45;;;14.60;;
52057;SDS011;38063;53.210;6.504;2023-12-04T06:47:34;34.70;;;14.63;;
52057;SDS011;38063;53.210;6.504;2023-12-04T06:50:01;29.85;;;13.13;;
52057;SDS011;38063;53.210;6.504;2023-12-04T06:52:27;30.23;;;14.60;;
52057;SDS011;38063;53.210;6.504;2023-12-04T06:54:53;26.85;;;12.95;;
52057;SDS011;38063;53.210;6.504;2023-12-04T06:57:18;30.77;;;13.80;;
52057;SDS011;38063;53.210;6.504;2023-12-04T06:59:44;27.10;;;13.23;;
52057;SDS011;38063;53.210;6.504;2023-12-04T07:02:11;29.80;;;14.38;;
52057;SDS011;38063;53.210;6.504;2023-12-04T07:04:36;30.42;;;13.88;;
52057;SDS011;38063;53.210;6.504;2023-12-04T07:07:02;30.98;;;14.25;;
52057;SDS011;38063;53.210;6.504;2023-12-04T07:09:32;26.95;;;12.30;;
52057;SDS011;38063;53.210;6.504;2023-12-04T07:11:59;28.85;;;13.13;;
52057;SDS011;38063;53.210;6.504;2023-12-04T07:14:25;28.58;;;13.13;;
52057;SDS011;38063;53.210;6.504;2023-12-04T07:16:51;26.85;;;13.38;;
52057;SDS011;38063;53.210;6.504;2023-12-04T07:19:17;27.65;;;13.05;;
52057;SDS011;38063;53.210;6.504;2023-12-04T07:21:43;28.83;;;12.65;;
52057;SDS011;38063;53.210;6.504;2023-12-04T07:24:08;25.58;;;12.07;;
52057;SDS011;38063;53.210;6.504;2023-12-04T07:26:34;31.77;;;13.95;;
52057;SDS011;38063;53.210;6.504;2023-12-04T07:29:01;32.60;;;13.30;;
52057;SDS011;38063;53.210;6.504;2023-12-04T07:31:27;26.42;;;12.68;;
52057;SDS011;38063;53.210;6.504;2023-12-04T07:33:53;29.70;;;14.18;;
52057;SDS011;38063;53.210;6.504;2023-12-04T07:36:19;27.98;;;12.18;;
52057;SDS011;38063;53.210;6.504;2023-12-04T07:38:45;25.75;;;12.80;;
52057;SDS011;38063;53.210;6.504;2023-12-04T07:41:10;28.80;;;12.95;;
52057;SDS011;38063;53.210;6.504;2023-12-04T07:43:36;28.80;;;13.70;;
52057;SDS011;38063;53.210;6.504;2023-12-04T07:46:02;26.35;;;12.40;;
52057;SDS011;38063;53.210;6.504;2023-12-04T07:48:28;25.35;;;11.75;;
52057;SDS011;38063;53.210;6.504;2023-12-04T07:50:55;23.48;;;11.82;;
52057;SDS011;38063;53.210;6.504;2023-12-04T07:53:21;26.38;;;13.07;;
52057;SDS011;38063;53.210;6.504;2023-12-04T07:55:47;24.55;;;12.35;;
52057;SDS011;38063;53.210;6.504;2023-12-04T07:58:16;28.40;;;13.15;;
52057;SDS011;38063;53.210;6.504;2023-12-04T08:00:42;23.88;;;12.82;;
52057;SDS011;38063;53.210;6.504;2023-12-04T08:03:08;24.50;;;12.27;;
52057;SDS011;38063;53.210;6.504;2023-12-04T08:05:34;25.33;;;12.13;;
52057;SDS011;38063;53.210;6.504;2023-12-04T08:07:59;30.02;;;12.65;;
52057;SDS011;38063;53.210;6.504;2023-12-04T08:10:25;26.23;;;11.90;;
52057;SDS011;38063;53.210;6.504;2023-12-04T08:12:51;25.52;;;12.57;;
52057;SDS011;38063;53.210;6.504;2023-12-04T08:15:16;25.85;;;11.55;;
52057;SDS011;38063;53.210;6.504;2023-12-04T08:17:42;25.15;;;10.98;;
52057;SDS011;38063;53.210;6.504;2023-12-04T08:20:08;24.33;;;11.32;;
52057;SDS011;38063;53.210;6.504;2023-12-04T08:22:38;22.83;;;11.70;;
52057;SDS011;38063;53.210;6.504;2023-12-04T08:25:05;20.98;;;10.80;;
52057;SDS011;38063;53.210;6.504;2023-12-04T08:27:34;24.13;;;11.68;;
52057;SDS011;38063;53.210;6.504;2023-12-04T08:30:00;22.58;;;10.80;;
52057;SDS011;38063;53.210;6.504;2023-12-04T08:32:26;24.60;;;11.95;;
52057;SDS011;38063;53.210;6.504;2023-12-04T08:34:52;21.77;;;11.43;;
52057;SDS011;38063;53.210;6.504;2023-12-04T08:37:19;22.63;;;11.48;;
52057;SDS011;38063;53.210;6.504;2023-12-04T08:39:45;22.20;;;10.70;;
52057;SDS011;38063;53.210;6.504;2023-12-04T08:42:11;23.70;;;11.52;;
52057;SDS011;38063;53.210;6.504;2023-12-04T08:44:37;21.50;;;10.48;;
52057;SDS011;38063;53.210;6.504;2023-12-04T08:47:04;19.95;;;10.55;;
52057;SDS011;38063;53.210;6.504;2023-12-04T08:49:30;22.27;;;10.00;;
52057;SDS011;38063;53.210;6.504;2023-12-04T08:51:56;20.92;;;10.43;;
52057;SDS011;38063;53.210;6.504;2023-12-04T08:54:21;21.80;;;10.18;;
52057;SDS011;38063;53.210;6.504;2023-12-04T08:56:47;22.08;;;10.68;;
52057;SDS011;38063;53.210;6.504;2023-12-04T08:59:13;23.70;;;9.68;;
52057;SDS011;38063;53.210;6.504;2023-12-04T09:01:38;19.17;;;9.75;;
52057;SDS011;38063;53.210;6.504;2023-12-04T09:04:04;18.00;;;9.73;;
52057;SDS011;38063;53.210;6.504;2023-12-04T09:06:30;20.17;;;10.88;;
52057;SDS011;38063;53.210;6.504;2023-12-04T09:08:56;19.15;;;9.77;;
52057;SDS011;38063;53.210;6.504;2023-12-04T09:11:21;18.25;;;10.13;;
52057;SDS011;38063;53.210;6.504;2023-12-04T09:13:47;21.83;;;9.88;;
52057;SDS011;38063;53.210;6.504;2023-12-04T09:16:12;17.50;;;10.13;;
52057;SDS011;38063;53.210;6.504;2023-12-04T09:18:39;22.13;;;9.88;;
52057;SDS011;38063;53.210;6.504;2023-12-04T09:21:04;19.00;;;9.27;;
52057;SDS011;38063;53.210;6.504;2023-12-04T09:23:30;19.10;;;9.68;;
52057;SDS011;38063;53.210;6.504;2023-12-04T09:25:56;17.70;;;9.07;;
52057;SDS011;38063;53.210;6.504;2023-12-04T09:28:22;18.23;;;8.65;;
52057;SDS011;38063;53.210;6.504;2023-12-04T09:30:48;18.83;;;8.90;;
52057;SDS011;38063;53.210;6.504;2023-12-04T09:33:13;17.25;;;9.32;;
52057;SDS011;38063;53.210;6.504;2023-12-04T09:35:39;18.73;;;9.27;;
52057;SDS011;38063;53.210;6.504;2023-12-04T09:38:05;19.65;;;9.32;;
52057;SDS011;38063;53.210;6.504;2023-12-04T09:40:30;20.20;;;9.05;;
52057;SDS011;38063;53.210;6.504;2023-12-04T09:42:56;17.33;;;8.13;;
52057;SDS011;38063;53.210;6.504;2023-12-04T09:45:23;17.05;;;8.02;;
52057;SDS011;38063;53.210;6.504;2023-12-04T09:47:50;19.48;;;9.07;;
52057;SDS011;38063;53.210;6.504;2023-12-04T09:50:16;15.65;;;9.07;;
52057;SDS011;38063;53.210;6.504;2023-12-04T09:52:50;19.02;;;9.73;;
52057;SDS011;38063;53.210;6.504;2023-12-04T09:55:17;17.38;;;8.38;;
52057;SDS011;38063;53.210;6.504;2023-12-04T09:57:46;16.90;;;8.45;;
52057;SDS011;38063;53.210;6.504;2023-12-04T10:00:14;16.55;;;8.48;;
52057;SDS011;38063;53.210;6.504;2023-12-04T10:02:40;17.48;;;8.07;;
52057;SDS011;38063;53.210;6.504;2023-12-04T10:05:07;16.95;;;8.65;;
52057;SDS011;38063;53.210;6.504;2023-12-04T10:07:33;16.58;;;8.02;;
52057;SDS011;38063;53.210;6.504;2023-12-04T10:10:01;18.00;;;8.50;;
52057;SDS011;38063;53.210;6.504;2023-12-04T10:12:30;15.55;;;8.05;;
52057;SDS011;38063;53.210;6.504;2023-12-04T10:15:11;14.65;;;7.43;;
52057;SDS011;38063;53.210;6.504;2023-12-04T10:17:40;14.40;;;7.50;;
52057;SDS011;38063;53.210;6.504;2023-12-04T10:27:44;15.97;;;8.23;;
52057;SDS011;38063;53.210;6.504;2023-12-04T10:30:20;13.77;;;7.30;;
52057;SDS011;38063;53.210;6.504;2023-12-04T10:32:48;14.85;;;8.23;;
52057;SDS011;38063;53.210;6.504;2023-12-04T10:35:13;16.25;;;8.45;;
52057;SDS011;38063;53.210;6.504;2023-12-04T10:37:39;12.07;;;6.80;;
52057;SDS011;38063;53.210;6.504;2023-12-04T10:40:06;12.57;;;7.30;;
52057;SDS011;38063;53.210;6.504;2023-12-04T10:42:35;13.75;;;7.95;;
52057;SDS011;38063;53.210;6.504;2023-12-04T10:45:00;15.00;;;7.60;;
52057;SDS011;38063;53.210;6.504;2023-12-04T10:47:28;13.98;;;7.20;;
52057;SDS011;38063;53.210;6.504;2023-12-04T10:49:55;13.88;;;7.65;;
52057;SDS011;38063;53.210;6.504;2023-12-04T10:52:22;15.07;;;7.70;;
52057;SDS011;38063;53.210;6.504;2023-12-04T10:54:48;12.50;;;6.75;;
52057;SDS011;38063;53.210;6.504;2023-12-04T10:57:21;13.40;;;7.35;;
52057;SDS011;38063;53.210;6.504;2023-12-04T10:59:51;17.67;;;7.63;;
52057;SDS011;38063;53.210;6.504;2023-12-04T11:02:21;15.80;;;7.25;;
52057;SDS011;38063;53.210;6.504;2023-12-04T11:04:52;13.38;;;6.97;;
52057;SDS011;38063;53.210;6.504;2023-12-04T11:07:23;16.80;;;8.38;;
52057;SDS011;38063;53.210;6.504;2023-12-04T11:09:52;15.32;;;7.15;;
52057;SDS011;38063;53.210;6.504;2023-12-04T11:12:20;12.57;;;6.80;;
52057;SDS011;38063;53.210;6.504;2023-12-04T11:14:56;14.82;;;8.20;;
52057;SDS011;38063;53.210;6.504;2023-12-04T11:17:24;12.88;;;7.03;;
52057;SDS011;38063;53.210;6.504;2023-12-04T11:19:53;12.18;;;6.70;;
52057;SDS011;38063;53.210;6.504;2023-12-04T11:22:41;12.60;;;6.88;;
52057;SDS011;38063;53.210;6.504;2023-12-04T11:25:08;11.35;;;6.50;;
52057;SDS011;38063;53.210;6.504;2023-12-04T11:27:36;11.07;;;6.75;;
52057;SDS011;38063;53.210;6.504;2023-12-04T11:30:02;12.02;;;6.72;;
52057;SDS011;38063;53.210;6.504;2023-12-04T11:32:29;12.07;;;6.32;;
52057;SDS011;38063;53.210;6.504;2023-12-04T11:34:55;13.48;;;6.95;;
52057;SDS011;38063;53.210;6.504;2023-12-04T11:37:24;19.40;;;8.00;;
52057;SDS011;38063;53.210;6.504;2023-12-04T11:39:50;13.82;;;7.00;;
52057;SDS011;38063;53.210;6.504;2023-12-04T11:42:19;12.07;;;6.70;;
52057;SDS011;38063;53.210;6.504;2023-12-04T11:44:47;15.52;;;7.05;;
52057;SDS011;38063;53.210;6.504;2023-12-04T11:47:14;13.55;;;6.90;;
52057;SDS011;38063;53.210;6.504;2023-12-04T11:49:41;12.90;;;6.55;;
52057;SDS011;38063;53.210;6.504;2023-12-04T11:52:07;13.18;;;6.70;;
52057;SDS011;38063;53.210;6.504;2023-12-04T11:57:24;12.98;;;6.95;;
52057;SDS011;38063;53.210;6.504;2023-12-04T11:59:51;12.55;;;6.38;;
52057;SDS011;38063;53.210;6.504;2023-12-04T12:02:17;12.85;;;6.38;;
52057;SDS011;38063;53.210;6.504;2023-12-04T12:04:43;12.73;;;6.93;;
52057;SDS011;38063;53.210;6.504;2023-12-04T12:07:12;15.73;;;7.22;;
52057;SDS011;38063;53.210;6.504;2023-12-04T12:09:37;13.13;;;7.15;;
52057;SDS011;38063;53.210;6.504;2023-12-04T12:12:04;11.10;;;6.30;;
52057;SDS011;38063;53.210;6.504;2023-12-04T12:14:30;14.68;;;7.68;;
52057;SDS011;38063;53.210;6.504;2023-12-04T12:16:57;11.10;;;6.35;;
52057;SDS011;38063;53.210;6.504;2023-12-04T12:19:24;12.82;;;7.68;;
52057;SDS011;38063;53.210;6.504;2023-12-04T12:21:50;12.38;;;6.95;;
52057;SDS011;38063;53.210;6.504;2023-12-04T12:24:17;15.50;;;6.78;;
52057;SDS011;38063;53.210;6.504;2023-12-04T12:26:43;13.05;;;7.65;;
52057;SDS011;38063;53.210;6.504;2023-12-04T12:29:10;14.90;;;7.22;;
52057;SDS011;38063;53.210;6.504;2023-12-04T12:31:36;11.95;;;6.70;;
52057;SDS011;38063;53.210;6.504;2023-12-04T12:34:01;11.48;;;6.22;;
52057;SDS011;38063;53.210;6.504;2023-12-04T12:36:28;14.93;;;6.55;;
52057;SDS011;38063;53.210;6.504;2023-12-04T12:38:54;16.65;;;7.32;;
52057;SDS011;38063;53.210;6.504;2023-12-04T12:41:21;14.63;;;6.78;;
52057;SDS011;38063;53.210;6.504;2023-12-04T12:43:46;13.77;;;6.68;;
52057;SDS011;38063;53.210;6.504;2023-12-04T12:46:17;13.10;;;7.28;;
52057;SDS011;38063;53.210;6.504;2023-12-04T12:48:42;12.98;;;7.05;;
52057;SDS011;38063;53.210;6.504;2023-12-04T12:51:09;15.25;;;6.75;;
52057;SDS011;38063;53.210;6.504;2023-12-04T12:53:36;15.20;;;7.28;;
52057;SDS011;38063;53.210;6.504;2023-12-04T12:56:02;12.75;;;7.15;;
52057;SDS011;38063;53.210;6.504;2023-12-04T12:58:28;12.90;;;7.18;;
52057;SDS011;38063;53.210;6.504;2023-12-04T13:00:54;13.45;;;6.60;;
52057;SDS011;38063;53.210;6.504;2023-12-04T13:03:21;11.85;;;7.72;;
52057;SDS011;38063;53.210;6.504;2023-12-04T13:05:47;15.13;;;7.32;;
52057;SDS011;38063;53.210;6.504;2023-12-04T13:08:12;13.75;;;6.95;;
52057;SDS011;38063;53.210;6.504;2023-12-04T13:10:40;12.35;;;8.02;;
52057;SDS011;38063;53.210;6.504;2023-12-04T13:13:10;12.10;;;6.55;;
52057;SDS011;38063;53.210;6.504;2023-12-04T13:15:36;14.30;;;7.25;;
52057;SDS011;38063;53.210;6.504;2023-12-04T13:18:02;13.82;;;7.85;;
52057;SDS011;38063;53.210;6.504;2023-12-04T13:20:28;11.85;;;7.05;;
52057;SDS011;38063;53.210;6.504;2023-12-04T13:22:53;13.48;;;6.75;;
52057;SDS011;38063;53.210;6.504;2023-12-04T13:25:19;14.50;;;7.45;;
52057;SDS011;38063;53.210;6.504;2023-12-04T13:27:46;13.07;;;7.28;;
52057;SDS011;38063;53.210;6.504;2023-12-04T13:30:12;12.27;;;6.85;;
52057;SDS011;38063;53.210;6.504;2023-12-04T13:32:37;13.10;;;6.88;;
52057;SDS011;38063;53.210;6.504;2023-12-04T13:35:04;14.00;;;7.32;;
52057;SDS011;38063;53.210;6.504;2023-12-04T13:37:31;13.00;;;7.53;;
52057;SDS011;38063;53.210;6.504;2023-12-04T13:39:58;13.45;;;6.97;;
52057;SDS011;38063;53.210;6.504;2023-12-04T13:42:27;13.02;;;6.97;;
52057;SDS011;38063;53.210;6.504;2023-12-04T13:45:11;14.18;;;7.07;;
52057;SDS011;38063;53.210;6.504;2023-12-04T13:47:39;11.95;;;7.18;;
52057;SDS011;38063;53.210;6.504;2023-12-04T13:50:06;15.10;;;7.40;;
52057;SDS011;38063;53.210;6.504;2023-12-04T13:52:35;13.07;;;7.25;;
52057;SDS011;38063;53.210;6.504;2023-12-04T13:55:01;13.20;;;7.07;;
52057;SDS011;38063;53.210;6.504;2023-12-04T13:57:36;13.30;;;7.85;;
52057;SDS011;38063;53.210;6.504;2023-12-04T14:00:09;14.40;;;7.95;;
52057;SDS011;38063;53.210;6.504;2023-12-04T14:02:35;14.25;;;6.85;;
52057;SDS011;38063;53.210;6.504;2023-12-04T14:05:02;10.95;;;6.55;;
52057;SDS011;38063;53.210;6.504;2023-12-04T14:07:28;11.20;;;6.50;;
52057;SDS011;38063;53.210;6.504;2023-12-04T14:09:54;11.35;;;7.07;;
52057;SDS011;38063;53.210;6.504;2023-12-04T14:12:19;12.98;;;7.22;;
52057;SDS011;38063;53.210;6.504;2023-12-04T14:14:45;14.98;;;6.70;;
52057;SDS011;38063;53.210;6.504;2023-12-04T14:17:12;11.05;;;6.15;;
52057;SDS011;38063;53.210;6.504;2023-12-04T14:19:37;10.40;;;6.10;;
52057;SDS011;38063;53.210;6.504;2023-12-04T14:22:04;11.77;;;6.80;;
52057;SDS011;38063;53.210;6.504;2023-12-04T14:24:30;14.13;;;7.13;;
52057;SDS011;38063;53.210;6.504;2023-12-04T14:26:56;14.52;;;7.57;;
52057;SDS011;38063;53.210;6.504;2023-12-04T14:29:22;14.35;;;8.00;;
52057;SDS011;38063;53.210;6.504;2023-12-04T14:31:47;13.32;;;7.40;;